createdAt,value
2018-06-17T00:00:36.922Z,88.95
2018-06-17T00:01:36.925Z,88.09
2018-06-17T00:02:36.923Z,88.47
2018-06-17T00:03:36.923Z,87.90
2018-06-17T00:04:36.924Z,88.13
2018-06-17T00:05:36.928Z,87.74
2018-06-17T00:06:36.925Z,87.08
2018-06-17T00:07:36.926Z,87.37
2018-06-17T00:08:36.926Z,86.98
2018-06-17T00:09:36.926Z,87.74
2018-06-17T00:10:36.926Z,87.46
2018-06-17T00:11:36.926Z,87.08
2018-06-17T00:12:36.928Z,88.03
2018-06-17T00:13:36.928Z,87.51
2018-06-17T00:14:36.928Z,87.51
2018-06-17T00:15:36.928Z,87.61
2018-06-17T00:16:36.930Z,88.42
2018-06-17T00:17:36.930Z,88.90
2018-06-17T00:18:36.931Z,88.09
2018-06-17T00:19:36.929Z,87.70
2018-06-17T00:20:36.930Z,88.03
2018-06-17T00:21:36.931Z,88.23
2018-06-17T00:22:36.932Z,88.18
2018-06-17T00:23:36.931Z,87.94
2018-06-17T00:24:36.932Z,88.28
2018-06-17T00:25:36.934Z,88.56
2018-06-17T00:26:36.936Z,88.37
2018-06-17T00:27:36.933Z,88.09
2018-06-17T00:28:36.934Z,88.28
2018-06-17T00:29:36.934Z,88.09
2018-06-17T00:30:36.934Z,88.95
2018-06-17T00:31:36.936Z,88.85
2018-06-17T00:32:36.935Z,88.76
2018-06-17T00:33:36.935Z,88.85
2018-06-17T00:34:36.936Z,90.19
2018-06-17T00:35:36.934Z,88.76
2018-06-17T00:36:36.934Z,89.72
2018-06-17T00:37:36.936Z,89.14
2018-06-17T00:38:36.941Z,88.85
2018-06-17T00:39:36.937Z,89.14
2018-06-17T00:40:36.937Z,88.95
2018-06-17T00:41:36.938Z,89.52
2018-06-17T00:42:36.937Z,89.72
2018-06-17T00:43:36.937Z,89.14
2018-06-17T00:44:36.938Z,89.43
2018-06-17T00:45:36.937Z,89.14
2018-06-17T00:46:36.939Z,88.66
2018-06-17T00:47:36.938Z,88.66
2018-06-17T00:48:36.938Z,88.95
2018-06-17T00:49:36.941Z,89.52
2018-06-17T00:50:36.946Z,88.76
2018-06-17T00:51:36.938Z,89.04
2018-06-17T00:52:36.940Z,89.04
2018-06-17T00:53:36.945Z,89.23
2018-06-17T00:54:36.940Z,89.43
2018-06-17T00:55:36.940Z,88.76
2018-06-17T00:56:36.940Z,88.47
2018-06-17T00:57:36.941Z,88.95
2018-06-17T00:58:36.948Z,88.95
2018-06-17T00:59:36.942Z,88.56
2018-06-17T01:00:36.941Z,88.95
2018-06-17T01:01:36.942Z,88.66
2018-06-17T01:02:36.942Z,88.56
2018-06-17T01:03:36.942Z,88.66
2018-06-17T01:04:36.941Z,88.66
2018-06-17T01:05:36.943Z,88.66
2018-06-17T01:06:36.946Z,88.85
2018-06-17T01:07:36.943Z,89.23
2018-06-17T01:08:36.944Z,89.04
2018-06-17T01:09:36.943Z,89.23
2018-06-17T01:10:36.944Z,88.76
2018-06-17T01:11:36.943Z,88.76
2018-06-17T01:12:36.943Z,88.47
2018-06-17T01:13:36.943Z,88.66
2018-06-17T01:14:36.943Z,88.66
2018-06-17T01:15:36.943Z,88.56
2018-06-17T01:16:36.945Z,88.37
2018-06-17T01:17:36.944Z,88.28
2018-06-17T01:18:36.946Z,88.28
2018-06-17T01:19:36.943Z,87.99
2018-06-17T01:20:36.948Z,87.99
2018-06-17T01:21:36.945Z,88.28
2018-06-17T01:22:36.944Z,88.09
2018-06-17T01:23:36.944Z,87.90
2018-06-17T01:24:36.945Z,88.47
2018-06-17T01:25:36.945Z,88.18
2018-06-17T01:26:36.948Z,88.66
2018-06-17T01:27:36.945Z,88.18
2018-06-17T01:28:36.947Z,88.18
2018-06-17T01:29:36.946Z,88.28
2018-06-17T01:30:36.951Z,88.09
2018-06-17T01:31:36.945Z,88.18
2018-06-17T01:32:36.945Z,88.18
2018-06-17T01:33:36.946Z,88.09
2018-06-17T01:34:36.946Z,88.47
2018-06-17T01:35:36.944Z,89.00
2018-06-17T01:36:36.950Z,90.05
2018-06-17T01:37:36.946Z,90.44
2018-06-17T01:38:36.948Z,89.38
2018-06-17T01:39:36.945Z,90.05
2018-06-17T01:40:36.948Z,90.05
2018-06-17T01:41:36.948Z,89.76
2018-06-17T01:42:36.948Z,90.44
2018-06-17T01:43:36.946Z,90.05
2018-06-17T01:44:36.947Z,90.53
2018-06-17T01:45:36.946Z,90.91
2018-06-17T01:46:36.946Z,90.15
2018-06-17T01:47:36.946Z,91.01
2018-06-17T01:48:36.945Z,90.72
2018-06-17T01:49:36.947Z,90.82
2018-06-17T01:50:36.982Z,91.01
2018-06-17T01:51:36.947Z,90.72
2018-06-17T01:52:36.951Z,90.63
2018-06-17T01:53:36.945Z,91.11
2018-06-17T01:54:36.945Z,90.72
2018-06-17T01:55:36.945Z,90.39
2018-06-17T01:56:36.944Z,90.24
2018-06-17T01:57:36.949Z,90.91
2018-06-17T01:58:36.948Z,90.82
2018-06-17T01:59:36.944Z,90.44
2018-06-17T02:00:36.944Z,90.87
2018-06-17T02:01:36.944Z,90.34
2018-06-17T02:02:36.944Z,90.34
2018-06-17T02:03:36.944Z,91.01
2018-06-17T02:04:36.944Z,90.82
2018-06-17T02:05:36.945Z,90.82
2018-06-17T02:06:36.944Z,90.82
2018-06-17T02:07:36.954Z,90.63
2018-06-17T02:08:36.965Z,90.63
2018-06-17T02:09:36.944Z,90.58
2018-06-17T02:10:36.944Z,91.01
2018-06-17T02:11:36.944Z,90.05
2018-06-17T02:12:36.942Z,90.15
2018-06-17T02:13:36.942Z,89.48
2018-06-17T02:14:36.946Z,89.48
2018-06-17T02:15:36.941Z,88.90
2018-06-17T02:16:36.942Z,89.00
2018-06-17T02:17:36.941Z,89.19
2018-06-17T02:18:36.941Z,88.71
2018-06-17T02:19:36.942Z,89.86
2018-06-17T02:20:36.940Z,89.48
2018-06-17T02:21:36.942Z,89.29
2018-06-17T02:22:36.945Z,89.76
2018-06-17T02:23:36.944Z,89.86
2018-06-17T02:24:36.948Z,89.67
2018-06-17T02:25:36.942Z,89.19
2018-06-17T02:26:36.941Z,90.15
2018-06-17T02:27:36.944Z,89.95
2018-06-17T02:28:36.940Z,90.05
2018-06-17T02:29:36.942Z,90.24
2018-06-17T02:30:36.945Z,90.30
2018-06-17T02:31:36.940Z,91.01
2018-06-17T02:32:36.940Z,90.24
2018-06-17T02:33:36.947Z,90.82
2018-06-17T02:34:36.942Z,90.91
2018-06-17T02:35:36.938Z,91.35
2018-06-17T02:36:36.939Z,91.92
2018-06-17T02:37:36.939Z,91.83
2018-06-17T02:38:36.942Z,91.35
2018-06-17T02:39:36.941Z,91.06
2018-06-17T02:40:36.938Z,91.83
2018-06-17T02:41:36.962Z,90.87
2018-06-17T02:42:36.940Z,91.83
2018-06-17T02:43:36.936Z,91.92
2018-06-17T02:44:36.936Z,92.02
2018-06-17T02:45:36.936Z,91.53
2018-06-17T02:46:36.936Z,92.11
2018-06-17T02:47:36.937Z,92.40
2018-06-17T02:48:36.935Z,91.73
2018-06-17T02:49:36.937Z,92.59
2018-06-17T02:50:36.935Z,92.78
2018-06-17T02:51:36.934Z,92.02
2018-06-17T02:52:36.934Z,92.11
2018-06-17T02:53:36.933Z,91.92
2018-06-17T02:54:36.943Z,91.83
2018-06-17T02:55:36.932Z,91.16
2018-06-17T02:56:36.933Z,91.44
2018-06-17T02:57:36.982Z,91.16
2018-06-17T02:58:36.932Z,91.06
2018-06-17T02:59:36.933Z,91.44
2018-06-17T03:00:36.929Z,90.77
2018-06-17T03:01:36.930Z,90.77
2018-06-17T03:02:36.929Z,90.96
2018-06-17T03:03:36.928Z,91.35
2018-06-17T03:04:36.930Z,90.87
2018-06-17T03:05:36.930Z,90.87
2018-06-17T03:06:36.929Z,90.77
2018-06-17T03:07:36.932Z,91.35
2018-06-17T03:08:36.926Z,91.25
2018-06-17T03:09:36.927Z,90.77
2018-06-17T03:10:36.926Z,90.96
2018-06-17T03:11:36.927Z,91.06
2018-06-17T03:12:36.924Z,90.67
2018-06-17T03:13:36.925Z,91.25
2018-06-17T03:14:36.925Z,91.25
2018-06-17T03:15:36.928Z,91.06
2018-06-17T03:16:36.928Z,90.77
2018-06-17T03:17:36.926Z,91.25
2018-06-17T03:18:36.924Z,91.35
2018-06-17T03:19:36.921Z,91.35
2018-06-17T03:20:36.923Z,91.92
2018-06-17T03:21:36.925Z,91.83
2018-06-17T03:22:36.921Z,91.73
2018-06-17T03:23:36.921Z,91.53
2018-06-17T03:24:36.921Z,91.73
2018-06-17T03:25:36.931Z,91.92
2018-06-17T03:26:36.921Z,91.73
2018-06-17T03:27:36.925Z,92.21
2018-06-17T03:28:36.918Z,92.21
2018-06-17T03:29:36.918Z,92.21
2018-06-17T03:30:36.919Z,91.44
2018-06-17T03:31:36.925Z,92.02
2018-06-17T03:32:36.923Z,91.73
2018-06-17T03:33:36.919Z,91.73
2018-06-17T03:34:36.920Z,92.02
2018-06-17T03:35:36.915Z,91.83
2018-06-17T03:36:36.919Z,92.40
2018-06-17T03:37:36.924Z,92.21
2018-06-17T03:38:36.916Z,91.92
2018-06-17T03:39:36.916Z,92.30
2018-06-17T03:40:36.918Z,92.88
2018-06-17T03:41:36.913Z,92.11
2018-06-17T03:42:36.913Z,92.02
2018-06-17T03:43:36.913Z,91.83
2018-06-17T03:44:36.912Z,92.02
2018-06-17T03:45:36.912Z,92.21
2018-06-17T03:46:36.912Z,91.73
2018-06-17T03:47:36.911Z,91.44
2018-06-17T03:48:36.915Z,91.16
2018-06-17T03:49:36.914Z,90.48
2018-06-17T03:50:36.911Z,90.96
2018-06-17T03:51:36.910Z,90.87
2018-06-17T03:52:36.909Z,90.72
2018-06-17T03:53:36.908Z,90.82
2018-06-17T03:54:36.908Z,90.82
2018-06-17T03:55:36.909Z,90.91
2018-06-17T03:56:36.910Z,90.58
2018-06-17T03:57:36.911Z,91.01
2018-06-17T03:58:36.915Z,90.91
2018-06-17T03:59:36.907Z,90.82
2018-06-17T04:00:36.906Z,90.91
2018-06-17T04:01:36.906Z,91.06
2018-06-17T04:02:36.905Z,90.77
2018-06-17T04:03:36.906Z,90.82
2018-06-17T04:04:36.906Z,89.95
2018-06-17T04:05:36.907Z,90.77
2018-06-17T04:06:36.905Z,91.16
2018-06-17T04:07:36.905Z,90.91
2018-06-17T04:08:36.905Z,90.77
2018-06-17T04:09:36.907Z,90.72
2018-06-17T04:10:36.907Z,90.63
2018-06-17T04:11:36.903Z,91.01
2018-06-17T04:12:36.902Z,91.11
2018-06-17T04:13:36.904Z,90.24
2018-06-17T04:14:36.905Z,90.72
2018-06-17T04:15:36.900Z,90.44
2018-06-17T04:16:36.903Z,90.44
2018-06-17T04:17:36.904Z,90.44
2018-06-17T04:18:36.901Z,89.58
2018-06-17T04:19:36.900Z,89.76
2018-06-17T04:20:36.901Z,90.05
2018-06-17T04:21:36.899Z,89.95
2018-06-17T04:22:36.900Z,90.15
2018-06-17T04:23:36.903Z,90.24
2018-06-17T04:24:36.902Z,90.15
2018-06-17T04:25:36.938Z,90.05
2018-06-17T04:26:36.900Z,90.24
2018-06-17T04:27:36.897Z,90.63
2018-06-17T04:28:36.898Z,91.39
2018-06-17T04:29:36.897Z,90.91
2018-06-17T04:30:36.897Z,91.39
2018-06-17T04:31:36.902Z,91.01
2018-06-17T04:32:36.896Z,90.24
2018-06-17T04:33:36.897Z,90.15
2018-06-17T04:34:36.897Z,90.24
2018-06-17T04:35:36.895Z,90.63
2018-06-17T04:36:36.896Z,90.63
2018-06-17T04:37:36.896Z,90.72
2018-06-17T04:38:36.896Z,91.11
2018-06-17T04:39:36.896Z,90.63
2018-06-17T04:40:36.896Z,90.91
2018-06-17T04:41:36.898Z,90.34
2018-06-17T04:42:36.894Z,90.34
2018-06-17T04:43:36.894Z,90.91
2018-06-17T04:44:36.894Z,91.11
2018-06-17T04:45:36.894Z,90.34
2018-06-17T04:46:36.896Z,90.34
2018-06-17T04:47:36.893Z,90.91
2018-06-17T04:48:36.895Z,90.91
2018-06-17T04:49:36.894Z,90.82
2018-06-17T04:50:36.893Z,91.11
2018-06-17T04:51:36.894Z,90.44
2018-06-17T04:52:36.895Z,89.67
2018-06-17T04:53:36.892Z,89.38
2018-06-17T04:54:36.896Z,90.82
2018-06-17T04:55:36.895Z,90.44
2018-06-17T04:56:36.895Z,89.48
2018-06-17T04:57:36.891Z,89.62
2018-06-17T04:58:36.892Z,89.67
2018-06-17T04:59:36.895Z,89.86
2018-06-17T05:00:36.892Z,90.00
2018-06-17T05:01:36.894Z,89.62
2018-06-17T05:02:36.892Z,89.09
2018-06-17T05:03:36.891Z,89.52
2018-06-17T05:04:36.892Z,89.04
2018-06-17T05:05:36.892Z,88.95
2018-06-17T05:06:36.892Z,89.23
2018-06-17T05:07:36.891Z,89.23
2018-06-17T05:08:36.891Z,89.23
2018-06-17T05:09:36.894Z,89.14
2018-06-17T05:10:36.892Z,89.43
2018-06-17T05:11:36.892Z,89.52
2018-06-17T05:12:36.902Z,90.09
2018-06-17T05:13:36.890Z,89.23
2018-06-17T05:14:36.892Z,89.62
2018-06-17T05:15:36.890Z,89.90
2018-06-17T05:16:36.890Z,89.81
2018-06-17T05:17:36.891Z,89.52
2018-06-17T05:18:36.892Z,89.14
2018-06-17T05:19:36.890Z,88.85
2018-06-17T05:20:36.891Z,89.14
2018-06-17T05:21:36.892Z,88.90
2018-06-17T05:22:36.892Z,89.18
2018-06-17T05:23:36.892Z,89.09
2018-06-17T05:24:36.895Z,89.28
2018-06-17T05:25:36.892Z,89.28
2018-06-17T05:26:36.893Z,88.70
2018-06-17T05:27:36.893Z,88.42
2018-06-17T05:28:36.893Z,87.94
2018-06-17T05:29:36.893Z,88.13
2018-06-17T05:30:36.895Z,88.23
2018-06-17T05:31:36.894Z,88.61
2018-06-17T05:32:36.899Z,89.09
2018-06-17T05:33:36.895Z,88.70
2018-06-17T05:34:36.895Z,88.13
2018-06-17T05:35:36.896Z,87.94
2018-06-17T05:36:36.901Z,88.42
2018-06-17T05:37:36.897Z,88.99
2018-06-17T05:38:36.897Z,88.61
2018-06-17T05:39:36.898Z,88.70
2018-06-17T05:40:36.897Z,88.42
2018-06-17T05:41:36.897Z,89.47
2018-06-17T05:42:36.899Z,90.05
2018-06-17T05:43:36.908Z,89.37
2018-06-17T05:44:36.898Z,89.09
2018-06-17T05:45:36.909Z,89.28
2018-06-17T05:46:36.901Z,89.09
2018-06-17T05:47:36.913Z,89.95
2018-06-17T05:48:36.902Z,88.99
2018-06-17T05:49:36.901Z,88.61
2018-06-17T05:50:36.903Z,88.13
2018-06-17T05:51:36.902Z,88.42
2018-06-17T05:52:36.904Z,88.70
2018-06-17T05:53:36.904Z,88.32
2018-06-17T05:54:36.905Z,88.61
2018-06-17T05:55:36.948Z,88.70
2018-06-17T05:56:36.903Z,89.32
2018-06-17T05:57:36.904Z,90.14
2018-06-17T05:58:36.906Z,89.86
2018-06-17T05:59:36.908Z,88.99
2018-06-17T06:00:36.907Z,90.33
2018-06-17T06:01:36.906Z,88.84
2018-06-17T06:02:36.909Z,89.04
2018-06-17T06:03:36.908Z,89.23
2018-06-17T06:04:36.910Z,89.23
2018-06-17T06:05:36.911Z,88.75
2018-06-17T06:06:36.910Z,88.84
2018-06-17T06:07:36.915Z,89.90
2018-06-17T06:08:36.938Z,89.90
2018-06-17T06:09:36.912Z,89.23
2018-06-17T06:10:36.912Z,89.71
2018-06-17T06:11:36.915Z,88.75
2018-06-17T06:12:36.915Z,88.94
2018-06-17T06:13:36.915Z,88.75
2018-06-17T06:14:36.916Z,89.32
2018-06-17T06:15:36.921Z,89.13
2018-06-17T06:16:36.917Z,89.71
2018-06-17T06:17:36.918Z,90.14
2018-06-17T06:18:36.919Z,90.42
2018-06-17T06:19:36.919Z,91.28
2018-06-17T06:20:36.921Z,90.90
2018-06-17T06:21:36.923Z,90.52
2018-06-17T06:22:36.928Z,89.56
2018-06-17T06:23:36.927Z,88.22
2018-06-17T06:24:36.932Z,87.55
2018-06-17T06:25:36.925Z,88.07
2018-06-17T06:26:36.927Z,87.49
2018-06-17T06:27:36.928Z,87.01
2018-06-17T06:28:36.931Z,85.19
2018-06-17T06:29:36.935Z,86.72
2018-06-17T06:30:36.934Z,87.15
2018-06-17T06:31:36.934Z,85.71
2018-06-17T06:32:36.936Z,82.74
2018-06-17T06:33:36.939Z,83.03
2018-06-17T06:34:36.943Z,83.12
2018-06-17T06:35:36.942Z,82.93
2018-06-17T06:36:36.941Z,84.18
2018-06-17T06:37:36.942Z,84.56
2018-06-17T06:38:36.945Z,84.56
2018-06-17T06:39:36.949Z,83.03
2018-06-17T06:40:36.948Z,82.84
2018-06-17T06:41:36.951Z,84.66
2018-06-17T06:42:36.952Z,84.18
2018-06-17T06:43:36.952Z,83.22
2018-06-17T06:44:36.953Z,84.75
2018-06-17T06:45:36.979Z,85.33
2018-06-17T06:46:36.958Z,85.14
2018-06-17T06:47:36.959Z,83.89
2018-06-17T06:48:36.961Z,83.12
2018-06-17T06:49:36.965Z,82.84
2018-06-17T06:50:36.964Z,83.03
2018-06-17T06:51:36.965Z,83.12
2018-06-17T06:52:36.971Z,83.80
2018-06-17T06:53:36.968Z,84.27
2018-06-17T06:54:36.970Z,84.18
2018-06-17T06:55:36.976Z,83.84
2018-06-17T06:56:36.974Z,84.99
2018-06-17T06:57:36.989Z,86.14
2018-06-17T06:58:36.978Z,84.70
2018-06-17T06:59:36.979Z,83.84
2018-06-17T07:00:36.982Z,84.41
2018-06-17T07:01:36.983Z,85.28
2018-06-17T07:02:36.985Z,83.84
2018-06-17T07:03:36.991Z,83.93
2018-06-17T07:04:36.990Z,85.18
2018-06-17T07:05:37.007Z,84.22
2018-06-17T07:06:36.995Z,83.16
2018-06-17T07:07:36.997Z,84.03
2018-06-17T07:08:36.998Z,84.41
2018-06-17T07:09:37.003Z,83.93
2018-06-17T07:10:37.003Z,83.74
2018-06-17T07:11:37.007Z,84.22
2018-06-17T07:12:37.009Z,84.51
2018-06-17T07:13:37.008Z,85.18
2018-06-17T07:14:37.011Z,84.51
2018-06-17T07:15:37.012Z,84.12
2018-06-17T07:16:37.015Z,85.66
2018-06-17T07:17:37.017Z,85.85
2018-06-17T07:18:37.023Z,87.01
2018-06-17T07:19:37.028Z,86.66
2018-06-17T07:20:37.023Z,86.76
2018-06-17T07:21:37.027Z,87.34
2018-06-17T07:22:37.038Z,87.62
2018-06-17T07:23:37.029Z,86.95
2018-06-17T07:24:37.032Z,86.90
2018-06-17T07:25:37.035Z,87.29
2018-06-17T07:26:37.041Z,87.57
2018-06-17T07:27:37.040Z,87.19
2018-06-17T07:28:37.046Z,87.09
2018-06-17T07:29:37.044Z,87.96
2018-06-17T07:30:37.052Z,86.04
2018-06-17T07:31:37.052Z,86.90
2018-06-17T07:32:37.066Z,84.30
2018-06-17T07:33:37.059Z,85.94
2018-06-17T07:34:37.059Z,86.99
2018-06-17T07:35:37.060Z,88.34
2018-06-17T07:36:37.064Z,84.40
2018-06-17T07:37:37.067Z,84.59
2018-06-17T07:38:37.071Z,84.59
2018-06-17T07:39:37.071Z,83.83
2018-06-17T07:40:37.075Z,82.67
2018-06-17T07:41:37.078Z,84.30
2018-06-17T07:42:37.082Z,84.50
2018-06-17T07:43:37.083Z,83.73
2018-06-17T07:44:37.087Z,82.86
2018-06-17T07:45:37.089Z,81.07
2018-06-17T07:46:37.092Z,80.88
2018-06-17T07:47:37.095Z,81.17
2018-06-17T07:48:37.097Z,81.46
2018-06-17T07:49:37.104Z,81.37
2018-06-17T07:50:37.104Z,85.02
2018-06-17T07:51:37.107Z,81.56
2018-06-17T07:52:37.114Z,80.40
2018-06-17T07:53:37.114Z,81.75
2018-06-17T07:54:37.118Z,81.94
2018-06-17T07:55:37.121Z,83.91
2018-06-17T07:56:37.126Z,80.10
2018-06-17T07:57:37.168Z,76.76
2018-06-17T07:58:37.135Z,77.67
2018-06-17T07:59:37.143Z,75.36
2018-06-17T08:00:37.153Z,75.65
2018-06-17T08:01:37.151Z,76.51
2018-06-17T08:02:37.156Z,75.55
2018-06-17T08:03:37.160Z,75.16
2018-06-17T08:04:37.181Z,76.71
2018-06-17T08:05:37.176Z,74.49
2018-06-17T08:06:37.176Z,75.55
2018-06-17T08:07:37.186Z,75.26
2018-06-17T08:08:37.187Z,75.65
2018-06-17T08:09:37.196Z,74.65
2018-06-17T08:10:37.198Z,75.90
2018-06-17T08:11:37.203Z,74.01
2018-06-17T08:12:37.208Z,74.97
2018-06-17T08:13:37.213Z,75.55
2018-06-17T08:14:37.217Z,75.07
2018-06-17T08:15:37.222Z,75.84
2018-06-17T08:16:37.227Z,76.32
2018-06-17T08:17:37.232Z,74.10
2018-06-17T08:18:37.237Z,72.75
2018-06-17T08:19:37.241Z,72.08
2018-06-17T08:20:37.246Z,73.53
2018-06-17T08:21:37.250Z,71.70
2018-06-17T08:22:37.255Z,71.70
2018-06-17T08:23:37.260Z,71.98
2018-06-17T08:24:37.265Z,75.16
2018-06-17T08:25:37.270Z,75.55
2018-06-17T08:26:37.273Z,81.10
2018-06-17T08:27:37.276Z,78.31
2018-06-17T08:28:37.281Z,77.09
2018-06-17T08:29:37.285Z,75.32
2018-06-17T08:30:37.292Z,73.43
2018-06-17T08:31:37.295Z,72.60
2018-06-17T08:32:37.302Z,75.68
2018-06-17T08:33:37.305Z,75.88
2018-06-17T08:34:37.311Z,76.59
2018-06-17T08:35:37.315Z,75.24
2018-06-17T08:36:37.320Z,76.30
2018-06-17T08:37:37.325Z,74.47
2018-06-17T08:38:37.331Z,74.14
2018-06-17T08:39:37.334Z,75.40
2018-06-17T08:40:37.340Z,75.24
2018-06-17T08:41:37.346Z,73.73
2018-06-17T08:42:37.352Z,72.67
2018-06-17T08:43:37.356Z,72.42
2018-06-17T08:44:37.363Z,69.62
2018-06-17T08:45:37.401Z,69.23
2018-06-17T08:46:37.375Z,71.58
2018-06-17T08:47:37.381Z,73.03
2018-06-17T08:48:37.387Z,75.22
2018-06-17T08:49:37.393Z,74.93
2018-06-17T08:50:37.402Z,72.09
2018-06-17T08:51:37.405Z,69.39
2018-06-17T08:52:37.414Z,70.26
2018-06-17T08:53:37.419Z,70.16
2018-06-17T08:54:37.425Z,69.10
2018-06-17T08:55:37.431Z,69.29
2018-06-17T08:56:37.437Z,72.09
2018-06-17T08:57:37.447Z,72.19
2018-06-17T08:58:37.450Z,73.54
2018-06-17T08:59:37.456Z,72.96
2018-06-17T09:00:37.463Z,72.96
2018-06-17T09:01:37.469Z,72.03
2018-06-17T09:02:37.474Z,72.32
2018-06-17T09:03:37.481Z,71.64
2018-06-17T09:04:37.486Z,72.61
2018-06-17T09:05:37.492Z,72.52
2018-06-17T09:06:37.499Z,72.90
2018-06-17T09:07:37.509Z,72.03
2018-06-17T09:08:37.511Z,71.84
2018-06-17T09:09:37.517Z,72.00
2018-06-17T09:10:37.524Z,71.80
2018-06-17T09:11:37.529Z,71.70
2018-06-17T09:12:37.535Z,72.19
2018-06-17T09:13:37.541Z,73.54
2018-06-17T09:14:37.549Z,75.85
2018-06-17T09:15:37.552Z,74.69
2018-06-17T09:16:37.560Z,75.18
2018-06-17T09:17:37.566Z,72.86
2018-06-17T09:18:37.570Z,72.77
2018-06-17T09:19:37.576Z,76.34
2018-06-17T09:20:37.582Z,76.34
2018-06-17T09:21:37.588Z,74.12
2018-06-17T09:22:37.594Z,76.43
2018-06-17T09:23:37.599Z,74.60
2018-06-17T09:24:37.603Z,73.54
2018-06-17T09:25:37.611Z,73.73
2018-06-17T09:26:37.618Z,75.47
2018-06-17T09:27:37.621Z,73.63
2018-06-17T09:28:37.627Z,72.67
2018-06-17T09:29:37.631Z,73.06
2018-06-17T09:30:37.638Z,74.31
2018-06-17T09:31:37.647Z,78.56
2018-06-17T09:32:37.648Z,78.56
2018-06-17T09:33:37.654Z,73.44
2018-06-17T09:34:37.663Z,74.89
2018-06-17T09:35:37.666Z,73.93
2018-06-17T09:36:37.671Z,72.28
2018-06-17T09:37:37.681Z,73.28
2018-06-17T09:38:37.683Z,78.50
2018-06-17T09:39:37.687Z,75.31
2018-06-17T09:40:37.696Z,74.44
2018-06-17T09:41:37.701Z,72.61
2018-06-17T09:42:37.708Z,74.64
2018-06-17T09:43:37.712Z,73.83
2018-06-17T09:44:37.724Z,73.06
2018-06-17T09:45:37.724Z,74.99
2018-06-17T09:46:37.731Z,78.66
2018-06-17T09:47:37.737Z,77.88
2018-06-17T09:48:37.744Z,77.40
2018-06-17T09:49:37.747Z,77.98
2018-06-17T09:50:37.753Z,78.36
2018-06-17T09:51:37.760Z,75.27
2018-06-17T09:52:37.766Z,74.79
2018-06-17T09:53:37.772Z,74.31
2018-06-17T09:54:37.778Z,76.67
2018-06-17T09:55:37.783Z,76.86
2018-06-17T09:56:37.791Z,77.78
2018-06-17T09:57:37.794Z,80.53
2018-06-17T09:58:37.802Z,76.37
2018-06-17T09:59:37.807Z,76.72
2018-06-17T10:00:37.811Z,75.95
2018-06-17T10:01:37.836Z,78.17
2018-06-17T10:02:37.824Z,77.01
2018-06-17T10:03:37.828Z,75.37
2018-06-17T10:04:37.835Z,76.43
2018-06-17T10:05:37.843Z,75.18
2018-06-17T10:06:37.847Z,73.25
2018-06-17T10:07:37.852Z,73.73
2018-06-17T10:08:37.858Z,76.92
2018-06-17T10:09:37.865Z,78.08
2018-06-17T10:10:37.869Z,77.11
2018-06-17T10:11:37.875Z,75.67
2018-06-17T10:12:37.881Z,78.56
2018-06-17T10:13:37.888Z,77.98
2018-06-17T10:14:37.892Z,77.88
2018-06-17T10:15:37.898Z,78.85
2018-06-17T10:16:37.905Z,80.05
2018-06-17T10:17:37.909Z,80.62
2018-06-17T10:18:37.916Z,81.11
2018-06-17T10:19:37.922Z,79.95
2018-06-17T10:20:37.927Z,78.41
2018-06-17T10:21:37.933Z,76.61
2018-06-17T10:22:37.940Z,79.31
2018-06-17T10:23:37.948Z,74.19
2018-06-17T10:24:37.954Z,75.87
2018-06-17T10:25:37.965Z,72.06
2018-06-17T10:26:37.969Z,75.29
2018-06-17T10:27:37.974Z,74.04
2018-06-17T10:28:37.983Z,71.17
2018-06-17T10:29:38.038Z,71.66
2018-06-17T10:30:37.997Z,70.30
2018-06-17T10:31:38.005Z,70.10
2018-06-17T10:32:38.011Z,70.88
2018-06-17T10:33:38.019Z,70.20
2018-06-17T10:34:38.031Z,74.94
2018-06-17T10:35:38.035Z,75.68
2018-06-17T10:36:38.041Z,73.74
2018-06-17T10:37:38.050Z,73.84
2018-06-17T10:38:38.056Z,75.00
2018-06-17T10:39:38.062Z,76.55
2018-06-17T10:40:38.071Z,72.84
2018-06-17T10:41:38.085Z,70.52
2018-06-17T10:42:38.086Z,74.87
2018-06-17T10:43:38.151Z,75.74
2018-06-17T10:44:38.099Z,77.92
2018-06-17T10:45:38.107Z,77.44
2018-06-17T10:46:38.113Z,78.11
2018-06-17T10:47:38.121Z,74.73
2018-06-17T10:48:38.128Z,74.54
2018-06-17T10:49:38.136Z,76.09
2018-06-17T10:50:38.187Z,77.76
2018-06-17T10:51:38.147Z,77.19
2018-06-17T10:52:38.155Z,78.54
2018-06-17T10:53:38.167Z,75.74
2018-06-17T10:54:38.168Z,76.12
2018-06-17T10:55:38.195Z,74.38
2018-06-17T10:56:38.182Z,74.83
2018-06-17T10:57:38.188Z,75.22
2018-06-17T10:58:38.196Z,75.41
2018-06-17T10:59:38.201Z,79.02
2018-06-17T11:00:38.209Z,79.66
2018-06-17T11:01:38.214Z,78.31
2018-06-17T11:02:38.221Z,75.22
2018-06-17T11:03:38.228Z,73.96
2018-06-17T11:04:38.235Z,77.53
2018-06-17T11:05:38.298Z,79.85
2018-06-17T11:06:38.248Z,78.64
2018-06-17T11:07:38.255Z,78.83
2018-06-17T11:08:38.261Z,77.61
2018-06-17T11:09:38.266Z,82.00
2018-06-17T11:10:38.273Z,81.13
2018-06-17T11:11:38.280Z,77.26
2018-06-17T11:12:38.285Z,72.24
2018-06-17T11:13:38.293Z,72.20
2018-06-17T11:14:38.300Z,72.72
2018-06-17T11:15:38.306Z,75.00
2018-06-17T11:16:38.313Z,72.58
2018-06-17T11:17:38.321Z,74.04
2018-06-17T11:18:38.327Z,72.84
2018-06-17T11:19:38.346Z,74.44
2018-06-17T11:20:38.341Z,75.12
2018-06-17T11:21:38.346Z,75.45
2018-06-17T11:22:38.359Z,73.77
2018-06-17T11:23:38.360Z,75.70
2018-06-17T11:24:38.364Z,76.95
2018-06-17T11:25:38.372Z,77.44
2018-06-17T11:26:38.441Z,75.64
2018-06-17T11:27:38.384Z,75.68
2018-06-17T11:28:38.392Z,77.30
2018-06-17T11:29:38.400Z,73.33
2018-06-17T11:30:38.406Z,69.31
2018-06-17T11:31:38.414Z,66.92
2018-06-17T11:32:38.421Z,66.11
2018-06-17T11:33:38.428Z,68.59
2018-06-17T11:34:38.436Z,66.75
2018-06-17T11:35:38.448Z,68.30
2018-06-17T11:36:38.454Z,69.66
2018-06-17T11:37:38.460Z,72.17
2018-06-17T11:38:38.467Z,71.88
2018-06-17T11:39:38.475Z,71.17
2018-06-17T11:40:38.480Z,74.55
2018-06-17T11:41:38.489Z,75.04
2018-06-17T11:42:38.497Z,75.91
2018-06-17T11:43:38.501Z,76.87
2018-06-17T11:44:38.561Z,74.52
2018-06-17T11:45:38.518Z,75.00
2018-06-17T11:46:38.524Z,73.80
2018-06-17T11:47:38.529Z,76.12
2018-06-17T11:48:38.537Z,76.32
2018-06-17T11:49:38.545Z,72.74
2018-06-17T11:50:38.551Z,75.45
2018-06-17T11:51:38.556Z,76.22
2018-06-17T11:52:38.563Z,75.22
2018-06-17T11:53:38.573Z,75.51
2018-06-17T11:54:38.576Z,77.15
2018-06-17T11:55:38.589Z,77.05
2018-06-17T11:56:38.587Z,76.47
2018-06-17T11:57:38.593Z,76.05
2018-06-17T11:58:38.600Z,76.67
2018-06-17T11:59:38.616Z,79.47
2018-06-17T12:00:38.612Z,79.66
2018-06-17T12:01:38.618Z,80.58
2018-06-17T12:02:38.624Z,81.16
2018-06-17T12:03:38.629Z,77.30
2018-06-17T12:04:38.635Z,77.59
2018-06-17T12:05:38.640Z,78.17
2018-06-17T12:06:38.646Z,79.52
2018-06-17T12:07:38.650Z,80.68
2018-06-17T12:08:38.656Z,79.24
2018-06-17T12:09:38.687Z,79.33
2018-06-17T12:10:38.668Z,80.10
2018-06-17T12:11:38.674Z,80.16
2018-06-17T12:12:38.678Z,81.07
2018-06-17T12:13:38.684Z,81.65
2018-06-17T12:14:38.743Z,81.90
2018-06-17T12:15:38.693Z,82.76
2018-06-17T12:16:38.700Z,85.41
2018-06-17T12:17:38.710Z,84.16
2018-06-17T12:18:38.710Z,84.54
2018-06-17T12:19:38.714Z,85.02
2018-06-17T12:20:38.720Z,85.31
2018-06-17T12:21:38.724Z,84.16
2018-06-17T12:22:38.730Z,84.83
2018-06-17T12:23:38.735Z,83.87
2018-06-17T12:24:38.740Z,83.09
2018-06-17T12:25:38.744Z,84.01
2018-06-17T12:26:38.750Z,84.11
2018-06-17T12:27:38.757Z,84.69
2018-06-17T12:28:38.759Z,85.56
2018-06-17T12:29:38.764Z,86.43
2018-06-17T12:30:38.768Z,85.08
2018-06-17T12:31:38.773Z,85.66
2018-06-17T12:32:38.778Z,86.39
2018-06-17T12:33:38.784Z,86.19
2018-06-17T12:34:38.788Z,87.16
2018-06-17T12:35:38.792Z,88.31
2018-06-17T12:36:38.799Z,88.41
2018-06-17T12:37:38.803Z,88.51
2018-06-17T12:38:38.807Z,87.54
2018-06-17T12:39:38.811Z,88.12
2018-06-17T12:40:38.863Z,88.70
2018-06-17T12:41:38.821Z,89.28
2018-06-17T12:42:38.827Z,89.28
2018-06-17T12:43:38.838Z,88.99
2018-06-17T12:44:38.835Z,89.33
2018-06-17T12:45:38.839Z,89.23
2018-06-17T12:46:38.843Z,89.33
2018-06-17T12:47:38.847Z,89.57
2018-06-17T12:48:38.853Z,89.76
2018-06-17T12:49:38.860Z,88.75
2018-06-17T12:50:38.862Z,89.43
2018-06-17T12:51:38.865Z,90.20
2018-06-17T12:52:38.869Z,89.76